Flight Track Log - Related Links

Times and Time Zones

All times are in EDT time to prevent confusion due to time zone crossing. See the FLG3616 flight status page for this flight to view local times or setup timezone preferences in your user account.

Time Position Orientation Groundspeed Altitude Reporting Facility
EDT Latitude Longitude Course Direction KTS MPH feet Rate Location/Type
Sat 04:05:03 PM 42.2058 -83.3556 276° West 163 188 1,300  Level Cleveland Center
Sat 04:05:58 PM 42.1653 -83.3875 210° Southwest 220 253 4,000 2,821 Climbing Cleveland Center
Sat 04:07:00 PM 42.1136 -83.4550 224° Southwest 275 316 6,800 2,829 Climbing Cleveland Center
Sat 04:08:00 PM 42.2300 -83.8364 276° West  Level FlightAware Approximate
Sat 04:08:01 PM 42.1069 -83.5556 265° West 296 341 9,800  Level Cleveland Center
Sat 04:09:00 PM 42.2388 -83.9584 276° West  Level FlightAware Approximate
Sat 04:09:33 PM 42.1461 -83.7283 287° West 351 404 11,400  Level Cleveland Center
Sat 04:10:00 PM 42.2474 -84.0804 276° West  Level FlightAware Approximate
Sat 04:10:33 PM 42.1781 -83.8561 289° West 356 410 12,000  Level Cleveland Center
Sat 04:11:33 PM 42.2097 -83.9839 289° West 356 410 12,000  Level Cleveland Center
Sat 04:12:33 PM 42.2453 -84.1231 289° West 362 417 12,000  Level Cleveland Center
Sat 04:13:33 PM 42.2619 -84.2506 280° West 357 411 12,000 -100 Level Cleveland Center
Sat 04:14:33 PM 42.2600 -84.3739 269° West 351 404 11,800 -556 Descending Cleveland Center
Sat 04:15:21 PM 42.2597 -84.4533 270° West 334 384 11,000 -436 Descending Chicago Center
Sat 04:16:23 PM 42.2564 -84.5997 268° West 328 377 11,000 -290 Level Chicago Center
Sat 04:17:25 PM 42.2539 -84.7194 268° West 322 371 10,400 -829 Descending Chicago Center
Sat 04:18:26 PM 42.2525 -84.8250 269° West 293 337 9,300 -1,073 Descending Chicago Center
Sat 04:19:28 PM 42.2492 -84.9294 268° West 283 326 8,200 -1,016 Descending Chicago Center
Sat 04:20:30 PM 42.2297 -85.0250 255° West 283 326 7,200 -1,122 Descending Chicago Center
Sat 04:21:31 PM 42.2067 -85.1433 255° West 275 316 5,900 -1,122 Descending Chicago Center
Sat 04:22:33 PM 42.1883 -85.2397 256° West 271 312 4,900 -871 Descending Chicago Center
Sat 04:23:35 PM 42.1719 -85.3228 255° West 243 280 4,100 -780 Descending Chicago Center
Sat 04:24:36 PM 42.1564 -85.4028 255° West 228 262 3,300 -683 Descending Chicago Center
Sat 04:25:38 PM 42.1406 -85.4825 255° West 224 258 2,700 -581 Descending Chicago Center

Login

Don't have an account? Register now (free) for customized features, flight alerts, and more!